createdAt,value
2023-02-06T00:04:35.966Z,-6
2023-02-06T00:10:14.323Z,-6.1
2023-02-06T00:15:53.058Z,-6
2023-02-06T00:21:31.631Z,-6
2023-02-06T00:27:09.492Z,-6.1
2023-02-06T00:32:47.947Z,-6.1
2023-02-06T00:38:26.238Z,-6.1
2023-02-06T00:43:32.417Z,-6.1
2023-02-06T00:48:55.503Z,-6.2
2023-02-06T00:54:32.819Z,-6.3
2023-02-06T01:00:10.589Z,-6.3
2023-02-06T01:05:48.904Z,-6.3
2023-02-06T01:11:28.771Z,-6.4
2023-02-06T01:17:06.309Z,-6.4
2023-02-06T01:22:44.255Z,-6.4
2023-02-06T01:28:22.013Z,-6.5
2023-02-06T01:33:59.808Z,-6.4
2023-02-06T01:39:43.583Z,-6.5
2023-02-06T01:45:22.302Z,-6.5
2023-02-06T01:50:59.860Z,-6.4
2023-02-06T01:56:37.160Z,-6.4
2023-02-06T02:02:15.945Z,-6.4
2023-02-06T02:07:53.636Z,-6.5
2023-02-06T02:13:31.352Z,-6.5
2023-02-06T02:19:09.766Z,-6.6
2023-02-06T02:24:48.439Z,-6.6
2023-02-06T02:30:27.145Z,-6.6
2023-02-06T02:36:05.387Z,-6.7
2023-02-06T02:41:42.116Z,-6.8
2023-02-06T02:47:20.769Z,-6.9
2023-02-06T02:52:59.454Z,-7.1
2023-02-06T02:58:36.113Z,-7.3
2023-02-06T03:04:14.781Z,-7.5
2023-02-06T03:09:53.252Z,-7.7
2023-02-06T03:15:30.383Z,-7.9
2023-02-06T03:21:08.155Z,-8.1
2023-02-06T03:26:47.286Z,-8.3
2023-02-06T03:32:09.875Z,-8.4
2023-02-06T03:37:47.876Z,-8.5
2023-02-06T03:43:10.559Z,-8.6
2023-02-06T03:48:48.976Z,-8.6
2023-02-06T03:54:27.365Z,-8.6
2023-02-06T04:00:08.504Z,-8.6
2023-02-06T04:05:45.916Z,-8.6
2023-02-06T04:11:08.574Z,-8.6
2023-02-06T04:16:47.391Z,-8.6
2023-02-06T04:22:33.211Z,-8.6
2023-02-06T04:27:57.435Z,-8.6
2023-02-06T04:33:35.716Z,-8.7
2023-02-06T04:39:13.489Z,-8.8
2023-02-06T04:44:51.511Z,-8.7
2023-02-06T04:50:28.633Z,-8.7
2023-02-06T04:56:06.737Z,-8.7
2023-02-06T05:01:44.574Z,-8.8
2023-02-06T05:07:07.587Z,-8.8
2023-02-06T05:12:30.866Z,-8.9
2023-02-06T05:18:08.931Z,-8.9
2023-02-06T05:23:47.156Z,-9.1
2023-02-06T05:29:25.894Z,-9.2
2023-02-06T05:34:49.025Z,-9.3
2023-02-06T05:40:27.359Z,-9.3
2023-02-06T05:45:52.247Z,-9.3
2023-02-06T05:51:16.560Z,-9.3
2023-02-06T05:56:54.058Z,-9.3
2023-02-06T06:02:16.169Z,-9.2
2023-02-06T06:07:39.133Z,-9.1
2023-02-06T06:13:03.795Z,-9.1
2023-02-06T06:18:42.049Z,-8.9
2023-02-06T06:24:20.625Z,-8.8
2023-02-06T06:29:57.161Z,-8.6
2023-02-06T06:35:36.728Z,-8.4
2023-02-06T06:41:14.549Z,-8.1
2023-02-06T06:46:52.954Z,-7.6
2023-02-06T06:52:41.047Z,-7.1
2023-02-06T06:58:19.558Z,-6.3
2023-02-06T07:03:57.674Z,-4.9
2023-02-06T07:09:20.828Z,-2.3
2023-02-06T07:14:59.264Z,-0.2
2023-02-06T07:20:37.225Z,1.2
2023-02-06T07:26:15.704Z,2.1
2023-02-06T07:31:54.028Z,2.8
2023-02-06T07:37:32.787Z,3.4
2023-02-06T07:43:03.594Z,4.2
2023-02-06T07:48:27.406Z,6.1
2023-02-06T07:54:05.901Z,7.9
2023-02-06T07:59:43.507Z,9.1
2023-02-06T08:05:22.315Z,10.1
2023-02-06T08:11:01.232Z,12.5
2023-02-06T08:16:39.187Z,19.7
2023-02-06T08:22:18.115Z,20.6
2023-02-06T08:27:56.348Z,21.2
2023-02-06T08:33:19.494Z,22
2023-02-06T08:38:58.295Z,22.8
2023-02-06T08:44:36.869Z,23.9
2023-02-06T08:50:20.052Z,25.6
2023-02-06T08:55:59.498Z,31.9
2023-02-06T09:01:37.567Z,39.1
2023-02-06T09:07:01.238Z,40.8
2023-02-06T09:12:29.797Z,46
2023-02-06T09:18:08.997Z,53.6
2023-02-06T09:23:46.746Z,57.4
2023-02-06T09:29:37.322Z,62.5
2023-02-06T09:35:16.043Z,57.6
2023-02-06T09:40:54.386Z,48.6
2023-02-06T09:46:32.500Z,46.8
2023-02-06T09:52:10.964Z,47.4
2023-02-06T09:57:48.885Z,52.2
2023-02-06T10:03:28.030Z,54.8
2023-02-06T10:09:08.599Z,54.6
2023-02-06T10:14:30.849Z,54.5
2023-02-06T10:20:11.348Z,58.9
2023-02-06T10:25:49.498Z,67.9
2023-02-06T10:31:28.875Z,55.3
2023-02-06T10:37:16.294Z,46.8
2023-02-06T10:42:39.211Z,46
2023-02-06T10:48:12.814Z,43.6
2023-02-06T10:53:36.091Z,40.9
2023-02-06T10:59:15.649Z,38.1
2023-02-06T11:05:24.992Z,34.8
2023-02-06T11:11:03.510Z,32.1
2023-02-06T11:16:43.436Z,30
2023-02-06T11:22:08.238Z,29.5
2023-02-06T11:27:44.137Z,28.9
2023-02-06T11:33:37.810Z,27.9
2023-02-06T11:39:17.778Z,26.6
2023-02-06T11:44:42.235Z,25.2
2023-02-06T11:50:20.718Z,23.8
2023-02-06T11:55:59.265Z,22.5
2023-02-06T12:01:38.087Z,21.8
2023-02-06T12:07:17.388Z,21.8
2023-02-06T12:12:42.135Z,22.3
2023-02-06T12:18:48.889Z,24.4
2023-02-06T12:24:27.656Z,24.6
2023-02-06T12:30:06.931Z,24.3
2023-02-06T12:35:30.325Z,27.5
2023-02-06T12:41:08.774Z,33.8
2023-02-06T12:46:47.303Z,35.1
2023-02-06T12:52:27.882Z,34.4
2023-02-06T12:58:06.899Z,35.4
2023-02-06T13:04:07.122Z,37.6
2023-02-06T13:09:51.351Z,37.5
2023-02-06T13:15:30.750Z,35.9
2023-02-06T13:22:20.705Z,33.6
2023-02-06T13:27:58.553Z,33.1
2023-02-06T13:33:37.836Z,32.5
2023-02-06T13:39:00.435Z,31.4
2023-02-06T13:44:38.345Z,29.7
2023-02-06T13:49:59.623Z,27.8
2023-02-06T13:55:35.867Z,25.8
2023-02-06T14:01:14.977Z,24.3
2023-02-06T14:06:52.796Z,22.3
2023-02-06T14:12:14.345Z,20.7
2023-02-06T14:17:51.741Z,19.1
2023-02-06T14:23:29.424Z,17.8
2023-02-06T14:29:07.923Z,16.3
2023-02-06T14:34:30.285Z,15.2
2023-02-06T14:40:09.288Z,13.9
2023-02-06T14:46:04.462Z,12.7
2023-02-06T14:51:46.677Z,11.6
2023-02-06T14:57:11.404Z,10.5
2023-02-06T15:02:33.304Z,9.6
2023-02-06T15:08:11.539Z,8.7
2023-02-06T15:13:49.193Z,7.8
2023-02-06T15:19:10.401Z,6.9
2023-02-06T15:24:45.984Z,6.2
2023-02-06T15:30:23.650Z,5.4
2023-02-06T15:35:45.169Z,4.8
2023-02-06T15:41:09.316Z,4
2023-02-06T15:46:49.261Z,3.3
2023-02-06T15:52:10.375Z,2.6
2023-02-06T15:57:47.299Z,2
2023-02-06T16:03:25.641Z,1.4
2023-02-06T16:08:46.534Z,0.9
2023-02-06T16:14:09.150Z,0.4
2023-02-06T16:19:30.690Z,-0.1
2023-02-06T16:25:08.072Z,-0.5
2023-02-06T16:30:45.670Z,-0.9
2023-02-06T16:36:23.392Z,-1.3
2023-02-06T16:42:13.738Z,-1.6
2023-02-06T16:48:04.644Z,-2
2023-02-06T16:53:42.375Z,-2.3
2023-02-06T16:59:19.243Z,-2.5
2023-02-06T17:04:56.107Z,-2.8
2023-02-06T17:10:33.745Z,-3
2023-02-06T17:15:39.496Z,-3.2
2023-02-06T17:21:20.708Z,-3.3
2023-02-06T17:26:27.409Z,-3.5
2023-02-06T17:32:06.159Z,-3.6
2023-02-06T17:42:33.826Z,-3.9
2023-02-06T17:47:39.307Z,-3.9
2023-02-06T17:53:01.278Z,-4
2023-02-06T17:58:23.414Z,-4.1
2023-02-06T18:03:47.836Z,-4.2
2023-02-06T18:09:09.134Z,-4.3
2023-02-06T18:14:46.566Z,-4.3
2023-02-06T18:20:23.693Z,-4.4
2023-02-06T18:26:03.550Z,-4.4
2023-02-06T18:31:51.813Z,-4.4
2023-02-06T18:37:13.084Z,-4.5
2023-02-06T18:42:34.752Z,-4.5
2023-02-06T18:47:56.928Z,-4.5
2023-02-06T18:53:33.523Z,-4.6
2023-02-06T18:59:10.558Z,-4.6
2023-02-06T19:04:33.030Z,-4.6
2023-02-06T19:10:13.118Z,-4.6
2023-02-06T19:15:36.838Z,-4.6
2023-02-06T19:21:28.960Z,-4.6
2023-02-06T19:27:05.827Z,-4.6
2023-02-06T19:32:45.415Z,-4.6
2023-02-06T19:38:07.625Z,-4.6
2023-02-06T19:43:30.319Z,-4.6
2023-02-06T19:49:06.764Z,-4.6
2023-02-06T19:54:47.025Z,-4.6
2023-02-06T20:00:24.042Z,-4.6
2023-02-06T20:06:01.146Z,-4.6
2023-02-06T20:11:38.867Z,-4.6
2023-02-06T20:17:16.769Z,-4.6
2023-02-06T20:22:38.758Z,-4.6
2023-02-06T20:28:17.231Z,-4.6
2023-02-06T20:33:23.933Z,-4.6
2023-02-06T20:39:01.164Z,-4.6
2023-02-06T20:44:23.368Z,-4.6
2023-02-06T20:49:45.407Z,-4.7
2023-02-06T20:55:22.138Z,-4.7
2023-02-06T21:00:44.781Z,-4.7
2023-02-06T21:06:06.029Z,-4.8
2023-02-06T21:11:43.296Z,-4.8
2023-02-06T21:17:20.781Z,-4.8
2023-02-06T21:23:15.086Z,-4.9
2023-02-06T21:28:52.748Z,-4.9
2023-02-06T21:34:30.753Z,-4.9
2023-02-06T21:39:52.988Z,-5
2023-02-06T21:45:29.690Z,-5.1
2023-02-06T21:51:07.514Z,-5.1
2023-02-06T21:56:44.588Z,-5.2
2023-02-06T22:02:21.566Z,-5.2
2023-02-06T22:08:01.256Z,-5.2
2023-02-06T22:13:38.569Z,-5.2
2023-02-06T22:19:16.041Z,-5.2
2023-02-06T22:24:54.724Z,-5.2
2023-02-06T22:30:32.868Z,-5.2
2023-02-06T22:36:11.485Z,-5.2
2023-02-06T22:41:49.105Z,-5.2
2023-02-06T22:47:11.024Z,-5.2
2023-02-06T22:52:47.943Z,-5.2
2023-02-06T22:58:25.549Z,-5.2
2023-02-06T23:04:02.861Z,-5.3
2023-02-06T23:09:40.814Z,-5.3
2023-02-06T23:15:02.511Z,-5.3
2023-02-06T23:20:39.508Z,-5.3
2023-02-06T23:26:00.828Z,-5.3
2023-02-06T23:31:22.860Z,-5.3
2023-02-06T23:36:59.006Z,-5.3
2023-02-06T23:42:20.739Z,-5.3
2023-02-06T23:47:57.741Z,-5.3
2023-02-06T23:53:34.503Z,-5.3
2023-02-06T23:59:12.128Z,-5.3
